Time;durP1;ratioP1;P1;durP2;ratioP2;P2;SDS_P1;SDS_P2;PMS_P1;PMS_P2;Temp;Humidity;BMP_temperature;BMP_pressure;BME280_temperature;BME280_humidity;BME280_pressure;Samples;Min_cycle;Max_cycle;Signal;HPM_P1;HPM_P2
2021/09/19 03:02:06;;;;;;;;;;;12.30;99.90;;;;;;5603946;23;19922;-79
2021/09/19 03:05:34;;;;;;;;;;;12.20;99.90;;;;;;5317495;23;19948;-79
2021/09/19 03:08:29;;;;;;;;;;;12.20;99.90;;;;;;4981958;28;19946;-79
2021/09/19 03:11:24;;;;;;;;;;;12.20;99.90;;;;;;4985643;28;19957;-80
2021/09/19 03:14:19;;;;;;;;;;;12.10;99.90;;;;;;4982692;28;19918;-80
2021/09/19 03:17:15;;;;;;;;;;;12.10;99.90;;;;;;4996658;28;19940;-80
2021/09/19 03:20:26;;;;;;;;;;;12.20;99.90;;;;;;4986556;28;19926;-80
2021/09/19 03:23:31;;;;;;;;;;;12.20;99.90;;;;;;4996566;28;19926;-80
2021/09/19 03:26:47;;;;;;;;;;;12.20;99.90;;;;;;5081846;23;19917;-79
2021/09/19 03:29:41;;;;;;;;;;;12.10;99.90;;;;;;5008737;23;19933;-79
2021/09/19 03:32:35;;;;;;;;;;;12.00;99.90;;;;;;4962951;29;19937;-80
2021/09/19 03:35:27;;;;;;;;;;;11.90;99.90;;;;;;4978508;28;19910;-80
2021/09/19 03:38:24;;;;;;;;;;;11.90;99.90;;;;;;5231015;23;19914;-80
2021/09/19 03:41:43;;;;;;;;;;;11.80;99.90;;;;;;4973766;29;19922;-80
2021/09/19 03:44:33;;;;;;;;;;;11.80;99.90;;;;;;4971231;28;19931;-80
2021/09/19 03:47:28;;;;;;;;;;;11.80;99.90;;;;;;4984649;28;20053;-80
2021/09/19 03:50:47;;;;;;;;;;;11.80;99.90;;;;;;5038244;23;19941;-80
2021/09/19 03:53:49;;;;;;;;;;;11.90;99.90;;;;;;4972435;28;19958;-80
2021/09/19 03:56:53;;;;;;;;;;;11.90;99.90;;;;;;4979380;23;20042;-80
2021/09/19 03:59:48;;;;;;;;;;;11.90;99.90;;;;;;4980128;28;19930;-80
2021/09/19 04:05:29;;;;;;;;;;;11.90;99.90;;;;;;4996082;28;19953;-79
2021/09/19 04:08:25;;;;;;;;;;;11.80;99.90;;;;;;4978818;28;19932;-79
2021/09/19 04:11:32;;;;;;;;;;;11.80;99.90;;;;;;4989995;23;19914;-79
2021/09/19 04:14:22;;;;;;;;;;;11.70;99.90;;;;;;4993847;28;20040;-79
2021/09/19 04:17:17;;;;;;;;;;;11.60;99.90;;;;;;4989955;28;19926;-79
2021/09/19 04:20:32;;;;;;;;;;;11.70;99.90;;;;;;4998555;28;19922;-81
2021/09/19 04:23:26;;;;;;;;;;;11.60;99.90;;;;;;5043041;23;19959;-79
2021/09/19 04:26:40;;;;;;;;;;;11.60;99.90;;;;;;4956805;28;19926;-80
2021/09/19 04:29:30;;;;;;;;;;;11.60;99.90;;;;;;4965768;28;19926;-80
2021/09/19 04:35:20;;;;;;;;;;;11.60;99.90;;;;;;4992123;23;19910;-79
2021/09/19 04:38:10;;;;;;;;;;;11.60;99.90;;;;;;4968972;28;19917;-80
2021/09/19 04:44:31;;;;;;;;;;;11.70;99.90;;;;;;4971172;28;19910;-80
2021/09/19 04:47:28;;;;;;;;;;;11.80;99.90;;;;;;4973925;28;19930;-80
2021/09/19 04:50:17;;;;;;;;;;;11.80;99.90;;;;;;4964973;29;19926;-80
2021/09/19 04:53:16;;;;;;;;;;;11.70;99.90;;;;;;4961253;28;19925;-80
2021/09/19 04:56:05;;;;;;;;;;;11.70;99.90;;;;;;4971901;28;19973;-80
2021/09/19 09:16:42;;;;;;;;;;;16.10;99.90;;;;;;5111131;23;19926;-79
2021/09/19 09:19:36;;;;;;;;;;;16.20;99.90;;;;;;4977116;28;19926;-78
2021/09/19 09:22:26;;;;;;;;;;;16.40;99.90;;;;;;4966290;28;19970;-78
2021/09/19 09:25:43;;;;;;;;;;;16.40;99.90;;;;;;5144044;23;19953;31
